Newburg, Illinois
Current Conditions -  °F | °C
As of 8:54 PM on Saturday 25 Oct 2014 (Local Time) from KDEC Reporting Station
Clear Clear  
Wind Chill: 65°   Ceiling: Unl
Heat Index: 65°   Visibility: 10mi
Dew Point: 43°   Wind: 7mph
Humidity: 45%   Direction: 290°WNW
Pressure: 30.01"   Gusts: NA
Location:  40.0084°N, 88.8268°W
Report Text: KDEC 260154Z 29006KT 10SM CLR 18/06 A3001 RMK AO2 SLP159 T01830061
Loading
Personal Weather Stations






























Interactive Weather Map
Tropical Storm Tracking
New forecast layout! Learn more

10-Day Weather Forecast

Advertisements
Track Severe Weather on mobile